createdAt,value
2022-08-17T00:04:20.334Z,6.75
2022-08-17T00:10:22.836Z,6.93
2022-08-17T00:16:56.169Z,6.10
2022-08-17T00:23:23.329Z,6.00
2022-08-17T00:29:25.079Z,6.57
2022-08-17T00:35:27.851Z,6.28
2022-08-17T00:41:29.794Z,7.13
2022-08-17T00:47:33.294Z,7.28
2022-08-17T00:53:39.945Z,6.57
2022-08-17T00:59:47.120Z,7.13
2022-08-17T01:06:05.364Z,6.95
2022-08-17T01:12:09.037Z,6.82
2022-08-17T01:18:12.049Z,7.65
2022-08-17T01:24:14.848Z,7.53
2022-08-17T01:30:56.993Z,7.35
2022-08-17T01:36:41.983Z,7.43
2022-08-17T01:42:50.521Z,7.22
2022-08-17T01:48:53.123Z,7.88
2022-08-17T01:55:03.213Z,7.22
2022-08-17T02:01:07.492Z,7.20
2022-08-17T02:07:12.053Z,7.18
2022-08-17T02:13:21.355Z,7.18
2022-08-17T02:19:24.508Z,7.50
2022-08-17T02:25:28.462Z,8.40
2022-08-17T02:31:31.114Z,7.97
2022-08-17T02:37:33.407Z,8.35
2022-08-17T02:43:35.289Z,8.75
2022-08-17T02:49:37.443Z,8.77
2022-08-17T02:55:41.314Z,9.30
2022-08-17T03:01:43.348Z,9.10
2022-08-17T03:07:45.336Z,8.75
2022-08-17T03:13:47.047Z,8.68
2022-08-17T03:19:48.817Z,8.60
2022-08-17T03:25:53.045Z,8.93
2022-08-17T03:31:55.241Z,9.27
2022-08-17T03:38:00.915Z,9.88
2022-08-17T03:44:03.492Z,9.13
2022-08-17T03:50:25.181Z,9.07
2022-08-17T03:56:45.069Z,9.60
2022-08-17T04:02:46.917Z,9.73
2022-08-17T04:08:48.730Z,9.13
2022-08-17T04:14:52.625Z,9.38
2022-08-17T04:20:55.761Z,9.10
2022-08-17T04:26:59.509Z,10.18
2022-08-17T04:33:07.268Z,9.60
2022-08-17T04:39:11.922Z,8.73
2022-08-17T04:45:14.661Z,9.48
2022-08-17T04:51:21.014Z,9.00
2022-08-17T04:57:22.763Z,9.25
2022-08-17T05:03:24.607Z,9.75
2022-08-17T05:09:26.362Z,9.88
2022-08-17T05:15:29.099Z,8.95
2022-08-17T05:21:35.046Z,8.90
2022-08-17T05:27:36.748Z,9.07
2022-08-17T05:33:44.436Z,8.57
2022-08-17T05:39:48.123Z,9.20
2022-08-17T05:46:03.519Z,9.77
2022-08-17T05:52:37.276Z,9.18
2022-08-17T05:58:39.024Z,10.35
2022-08-17T06:04:51.579Z,10.63
2022-08-17T06:11:30.844Z,9.75
2022-08-17T06:17:33.189Z,10.25
2022-08-17T06:23:37.423Z,9.77
2022-08-17T06:29:49.574Z,10.77
2022-08-17T06:36:10.144Z,8.35
2022-08-17T06:43:02.136Z,9.02
2022-08-17T06:49:33.536Z,8.40
2022-08-17T06:56:18.180Z,8.13
2022-08-17T07:02:58.171Z,7.05
2022-08-17T07:09:18.563Z,7.25
2022-08-17T07:15:27.116Z,7.72
2022-08-17T07:21:38.481Z,7.63
2022-08-17T07:27:42.876Z,9.00
2022-08-17T07:34:01.620Z,7.32
2022-08-17T07:40:21.272Z,6.88
2022-08-17T07:46:45.216Z,6.43
2022-08-17T07:52:51.643Z,5.70
2022-08-17T07:59:23.091Z,7.20
2022-08-17T08:05:49.927Z,6.30
2022-08-17T08:11:49.995Z,5.15
2022-08-17T08:18:03.024Z,5.03
2022-08-17T08:24:10.862Z,3.90
2022-08-17T08:30:21.191Z,3.30
2022-08-17T08:37:14.974Z,3.15
2022-08-17T08:43:16.380Z,3.40
2022-08-17T08:50:02.716Z,3.55
2022-08-17T08:56:23.985Z,3.03
2022-08-17T09:02:34.793Z,2.90
2022-08-17T09:09:03.315Z,3.25
2022-08-17T09:15:18.073Z,3.00
2022-08-17T09:21:28.586Z,2.85
2022-08-17T09:28:00.752Z,2.60
2022-08-17T09:34:12.605Z,2.83
2022-08-17T09:40:32.480Z,2.85
2022-08-17T09:46:45.761Z,2.65
2022-08-17T09:52:56.683Z,2.55
2022-08-17T09:59:07.377Z,2.38
2022-08-17T10:05:33.398Z,2.25
2022-08-17T10:12:11.360Z,2.63
2022-08-17T10:18:39.109Z,2.88
2022-08-17T10:25:23.880Z,2.58
2022-08-17T10:31:35.896Z,2.45
2022-08-17T10:38:16.303Z,2.40
2022-08-17T10:44:39.095Z,2.30
2022-08-17T10:51:21.071Z,2.17
2022-08-17T10:57:42.732Z,2.47
2022-08-17T11:03:56.669Z,2.40
2022-08-17T11:10:17.356Z,2.28
2022-08-17T11:16:22.983Z,2.60
2022-08-17T11:22:57.812Z,2.30
2022-08-17T11:29:05.140Z,2.10
2022-08-17T11:35:22.189Z,1.95
2022-08-17T11:48:09.422Z,2.15
2022-08-17T11:54:42.995Z,2.00
2022-08-17T12:00:49.819Z,2.10
2022-08-17T12:13:04.098Z,2.22
2022-08-17T12:25:24.269Z,1.88
2022-08-17T12:31:30.352Z,1.95
2022-08-17T12:37:35.713Z,2.07
2022-08-17T12:43:37.485Z,2.45
2022-08-17T12:49:42.227Z,2.20
2022-08-17T12:55:45.549Z,2.22
2022-08-17T13:01:47.490Z,2.30
2022-08-17T13:07:50.479Z,6.03
2022-08-17T13:13:55.921Z,2.30
2022-08-17T13:19:58.326Z,12.57
2022-08-17T13:26:06.629Z,6.63
2022-08-17T13:32:13.147Z,2.45
2022-08-17T13:38:45.493Z,2.72
2022-08-17T13:44:47.273Z,2.60
2022-08-17T13:51:07.104Z,3.45
2022-08-17T13:57:23.428Z,2.97
2022-08-17T14:03:25.206Z,2.30
2022-08-17T14:09:49.733Z,2.40
2022-08-17T14:15:54.839Z,2.38
2022-08-17T14:21:59.032Z,2.35
2022-08-17T14:28:01.403Z,2.55
2022-08-17T14:34:03.339Z,2.40
2022-08-17T14:40:10.999Z,2.63
2022-08-17T14:46:12.773Z,2.90
2022-08-17T14:52:18.265Z,2.53
2022-08-17T14:58:20.208Z,2.47
2022-08-17T15:04:21.915Z,2.85
2022-08-17T15:10:25.927Z,2.80
2022-08-17T15:16:27.783Z,2.35
2022-08-17T15:22:33.506Z,2.50
2022-08-17T15:28:35.369Z,2.50
2022-08-17T15:34:37.377Z,2.30
2022-08-17T15:40:42.950Z,2.75
2022-08-17T15:46:44.648Z,2.53
2022-08-17T15:52:47.505Z,2.28
2022-08-17T15:58:49.969Z,2.42
2022-08-17T16:04:52.757Z,2.85
2022-08-17T16:10:58.588Z,2.83
2022-08-17T16:17:00.599Z,2.30
2022-08-17T16:23:03.161Z,2.58
2022-08-17T16:29:06.615Z,2.90
2022-08-17T16:35:11.341Z,2.63
2022-08-17T16:41:33.281Z,2.55
2022-08-17T16:47:35.583Z,2.28
2022-08-17T16:53:37.328Z,2.80
2022-08-17T16:59:43.740Z,2.50
2022-08-17T17:06:14.340Z,2.90
2022-08-17T17:12:19.206Z,2.75
2022-08-17T17:18:42.990Z,2.72
2022-08-17T17:25:23.938Z,3.00
2022-08-17T17:31:41.025Z,2.70
2022-08-17T17:37:45.148Z,2.80
2022-08-17T17:44:03.023Z,3.30
2022-08-17T17:50:07.386Z,3.17
2022-08-17T17:56:52.600Z,2.92
2022-08-17T18:03:17.305Z,3.00
2022-08-17T18:09:51.973Z,3.08
2022-08-17T18:16:00.555Z,3.28
2022-08-17T18:22:17.667Z,3.30
2022-08-17T18:28:25.239Z,3.75
2022-08-17T18:34:47.671Z,3.22
2022-08-17T18:41:03.028Z,3.97
2022-08-17T18:47:28.717Z,3.72
2022-08-17T18:53:39.516Z,4.00
2022-08-17T18:59:47.052Z,3.95
2022-08-17T19:06:24.634Z,3.95
2022-08-17T19:12:36.516Z,4.03
2022-08-17T19:18:43.441Z,4.13
2022-08-17T19:24:47.894Z,4.10
2022-08-17T19:30:59.386Z,4.40
2022-08-17T19:37:31.541Z,4.10
2022-08-17T19:44:01.198Z,4.75
2022-08-17T19:50:18.869Z,5.22
2022-08-17T19:56:44.906Z,4.70
2022-08-17T20:03:16.820Z,3.97
2022-08-17T20:09:44.679Z,4.18
2022-08-17T20:15:47.423Z,4.75
2022-08-17T20:22:00.526Z,4.50
2022-08-17T20:28:17.409Z,4.43
2022-08-17T20:34:33.581Z,4.80
2022-08-17T20:41:02.555Z,4.50
2022-08-17T20:47:10.298Z,4.47
2022-08-17T20:59:33.840Z,5.07
2022-08-17T21:06:00.024Z,5.15
2022-08-17T21:12:05.727Z,5.15
2022-08-17T21:18:38.783Z,5.30
2022-08-17T21:25:02.077Z,5.43
2022-08-17T21:31:09.137Z,5.30
2022-08-17T21:37:20.498Z,5.80
2022-08-17T21:43:27.251Z,5.38
2022-08-17T21:49:29.175Z,5.95
2022-08-17T21:55:40.472Z,6.68
2022-08-17T22:01:43.072Z,7.13
2022-08-17T22:07:48.054Z,6.88
2022-08-17T22:13:49.814Z,6.63
2022-08-17T22:20:04.663Z,5.82
2022-08-17T22:26:13.509Z,6.50
2022-08-17T22:32:36.008Z,6.45
2022-08-17T22:38:38.325Z,5.95
2022-08-17T22:44:51.102Z,6.47
2022-08-17T22:51:12.658Z,6.85
2022-08-17T22:57:34.828Z,6.53
2022-08-17T23:03:53.506Z,7.43
2022-08-17T23:09:55.283Z,6.68
2022-08-17T23:15:57.092Z,6.72
2022-08-17T23:22:01.641Z,7.22
2022-08-17T23:28:05.538Z,7.60
2022-08-17T23:34:11.582Z,7.15
2022-08-17T23:40:13.374Z,6.70
2022-08-17T23:46:16.207Z,6.80
2022-08-17T23:52:18.015Z,6.78
2022-08-17T23:58:19.782Z,7.40
